createdAt,value
2017-05-20T00:00:03.207Z,0
2017-05-20T00:05:03.293Z,0
2017-05-20T00:10:03.093Z,0
2017-05-20T00:15:02.712Z,0
2017-05-20T00:20:02.465Z,0
2017-05-20T00:25:03.237Z,0
2017-05-20T00:30:02.952Z,0
2017-05-20T00:35:02.756Z,0
2017-05-20T00:40:02.548Z,0
2017-05-20T00:45:03.351Z,0
2017-05-20T00:50:03.198Z,0
2017-05-20T00:55:02.816Z,0
2017-05-20T01:00:02.519Z,0
2017-05-20T01:05:03.138Z,0
2017-05-20T01:10:02.913Z,0
2017-05-20T01:15:02.609Z,0
2017-05-20T01:20:02.568Z,0
2017-05-20T01:25:03.252Z,0
2017-05-20T01:30:02.988Z,0
2017-05-20T01:35:02.670Z,0
2017-05-20T01:40:03.477Z,0
2017-05-20T01:45:03.075Z,0
2017-05-20T01:50:02.856Z,0
2017-05-20T01:55:02.457Z,0
2017-05-20T02:00:03.031Z,0
2017-05-20T02:05:02.664Z,0
2017-05-20T02:10:03.311Z,0
2017-05-20T02:15:02.992Z,0
2017-05-20T02:20:02.789Z,0
2017-05-20T02:25:02.612Z,0
2017-05-20T02:30:03.316Z,0
2017-05-20T02:35:03.137Z,0
2017-05-20T02:40:02.809Z,0
2017-05-20T02:45:02.613Z,0
2017-05-20T02:50:03.260Z,1
2017-05-20T02:55:02.917Z,2
2017-05-20T03:00:02.573Z,3
2017-05-20T03:05:03.204Z,6
2017-05-20T03:10:02.862Z,9
2017-05-20T03:15:02.480Z,13
2017-05-20T03:20:50.605Z,24
2017-05-20T03:25:03.291Z,35
2017-05-20T03:30:03.052Z,46
2017-05-20T03:35:02.663Z,59
2017-05-20T03:40:03.398Z,77
2017-05-20T03:45:02.995Z,178
2017-05-20T03:50:02.622Z,300
2017-05-20T03:55:03.372Z,407
2017-05-20T04:00:02.947Z,514
2017-05-20T04:05:02.662Z,557
2017-05-20T04:10:02.469Z,535
2017-05-20T04:15:03.233Z,535
2017-05-20T04:20:02.821Z,545
2017-05-20T04:25:03.437Z,687
2017-05-20T04:30:02.656Z,960
2017-05-20T04:35:03.386Z,1000
2017-05-20T04:40:03.169Z,1000
2017-05-20T04:45:02.732Z,1000
2017-05-20T04:50:03.306Z,1000
2017-05-20T04:55:03.050Z,1000
2017-05-20T05:00:02.797Z,2000
2017-05-20T05:05:03.489Z,2000
2017-05-20T05:10:03.310Z,1000
2017-05-20T05:15:02.898Z,2000
2017-05-20T05:20:02.706Z,1000
2017-05-20T05:25:03.471Z,2000
2017-05-20T05:30:03.331Z,2000
2017-05-20T05:35:03.032Z,2000
2017-05-20T05:40:02.704Z,3000
2017-05-20T05:45:03.466Z,3000
2017-05-20T05:50:03.014Z,3000
2017-05-20T05:55:02.846Z,2000
2017-05-20T06:00:02.494Z,2000
2017-05-20T06:05:03.196Z,2000
2017-05-20T06:10:03.065Z,2000
2017-05-20T06:15:02.839Z,2000
2017-05-20T06:20:02.590Z,2000
2017-05-20T06:25:03.284Z,2000
2017-05-20T06:30:02.889Z,2000
2017-05-20T06:35:02.671Z,2000
2017-05-20T06:40:03.450Z,3000
2017-05-20T06:45:03.196Z,4000
2017-05-20T06:50:02.867Z,4000
2017-05-20T06:55:02.587Z,4000
2017-05-20T07:00:03.194Z,6000
2017-05-20T07:05:03.001Z,4000
2017-05-20T07:10:02.871Z,3000
2017-05-20T07:15:02.698Z,3000
2017-05-20T07:20:03.476Z,4000
2017-05-20T07:25:03.311Z,5000
2017-05-20T07:30:03.137Z,6000
2017-05-20T07:35:02.758Z,9000
2017-05-20T07:40:02.532Z,8000
2017-05-20T07:45:03.229Z,9000
2017-05-20T07:50:03.083Z,11000
2017-05-20T07:55:02.963Z,6000
2017-05-20T08:00:02.584Z,31000
2017-05-20T08:05:03.275Z,49000
2017-05-20T08:10:03.043Z,51000
2017-05-20T08:15:02.829Z,16000
2017-05-20T08:20:02.523Z,13000
2017-05-20T08:25:03.128Z,50000
2017-05-20T08:30:03.005Z,53000
2017-05-20T08:35:02.868Z,15000
2017-05-20T08:40:02.640Z,59000
2017-05-20T08:45:03.429Z,63000
2017-05-20T08:50:03.122Z,64000
2017-05-20T08:55:02.816Z,13000
2017-05-20T09:00:02.599Z,11000
2017-05-20T09:05:03.335Z,7000
2017-05-20T09:10:02.821Z,9000
2017-05-20T09:15:02.940Z,11000
2017-05-20T09:20:02.718Z,8000
2017-05-20T09:25:02.554Z,7000
2017-05-20T09:30:02.542Z,47000
2017-05-20T09:35:03.261Z,56000
2017-05-20T09:40:03.341Z,60000
2017-05-20T09:45:03.241Z,29000
2017-05-20T09:50:03.106Z,53000
2017-05-20T09:55:03.083Z,57000
2017-05-20T10:00:03.388Z,65000
2017-05-20T10:05:03.140Z,63000
2017-05-20T10:10:02.788Z,60000
2017-05-20T10:15:02.840Z,63000
2017-05-20T10:20:02.823Z,14000
2017-05-20T10:25:02.851Z,65000
2017-05-20T10:30:03.256Z,6000
2017-05-20T10:35:02.680Z,10000
2017-05-20T10:40:03.359Z,60000
2017-05-20T10:45:02.522Z,55000
2017-05-20T10:50:03.100Z,13000
2017-05-20T10:55:02.712Z,10000
2017-05-20T11:00:03.320Z,15000
2017-05-20T11:05:03.398Z,12000
2017-05-20T11:10:02.937Z,40000
2017-05-20T11:15:02.755Z,10000
2017-05-20T11:20:03.152Z,60000
2017-05-20T11:25:02.828Z,14000
2017-05-20T11:30:03.074Z,19000
2017-05-20T11:35:02.949Z,44000
2017-05-20T11:40:02.524Z,18000
2017-05-20T11:45:02.984Z,11000
2017-05-20T11:50:03.435Z,15000
2017-05-20T11:55:03.022Z,36000
2017-05-20T12:00:03.359Z,18000
2017-05-20T12:05:03.033Z,16000
2017-05-20T12:10:03.130Z,18000
2017-05-20T12:15:02.967Z,35000
2017-05-20T12:20:03.216Z,41000
2017-05-20T12:25:02.965Z,58000
2017-05-20T12:30:02.639Z,31000
2017-05-20T12:35:02.625Z,11000
2017-05-20T12:40:03.288Z,53000
2017-05-20T12:45:02.902Z,56000
2017-05-20T12:50:02.610Z,7000
2017-05-20T12:55:03.284Z,15000
2017-05-20T13:00:02.827Z,43000
2017-05-20T13:05:03.307Z,53000
2017-05-20T13:10:02.500Z,46000
2017-05-20T13:15:02.797Z,45000
2017-05-20T13:20:03.450Z,10000
2017-05-20T13:25:03.369Z,13000
2017-05-20T13:30:02.921Z,13000
2017-05-20T13:35:03.003Z,35000
2017-05-20T13:40:02.744Z,18000
2017-05-20T13:45:03.004Z,14000
2017-05-20T13:50:02.527Z,40000
2017-05-20T13:55:03.026Z,35000
2017-05-20T14:00:02.644Z,35000
2017-05-20T14:05:02.959Z,13000
2017-05-20T14:10:03.453Z,35000
2017-05-20T14:15:03.002Z,34000
2017-05-20T14:20:02.540Z,34000
2017-05-20T14:25:02.968Z,13000
2017-05-20T14:30:02.693Z,34000
2017-05-20T14:35:03.120Z,34000
2017-05-20T14:40:02.892Z,36000
2017-05-20T14:45:02.539Z,11000
2017-05-20T14:50:02.915Z,33000
2017-05-20T14:55:03.445Z,11000
2017-05-20T15:00:03.040Z,31000
2017-05-20T15:05:02.583Z,10000
2017-05-20T15:10:03.186Z,6000
2017-05-20T15:15:02.645Z,9000
2017-05-20T15:20:03.218Z,14000
2017-05-20T15:25:02.820Z,9000
2017-05-20T15:30:03.191Z,6000
2017-05-20T15:35:03.310Z,4000
2017-05-20T15:40:02.729Z,5000
2017-05-20T15:45:03.219Z,6000
2017-05-20T15:50:02.792Z,7000
2017-05-20T15:55:03.170Z,6000
2017-05-20T16:00:02.756Z,4000
2017-05-20T16:05:03.194Z,5000
2017-05-20T16:10:02.497Z,4000
2017-05-20T16:15:03.100Z,4000
2017-05-20T16:20:03.398Z,3000
2017-05-20T16:25:02.988Z,4000
2017-05-20T16:30:03.360Z,10000
2017-05-20T16:35:03.139Z,5000
2017-05-20T16:40:03.420Z,5000
2017-05-20T16:45:03.100Z,4000
2017-05-20T16:50:02.553Z,3000
2017-05-20T16:55:02.817Z,13000
2017-05-20T17:00:03.227Z,12000
2017-05-20T17:05:03.315Z,12000
2017-05-20T17:10:03.229Z,11000
2017-05-20T17:15:02.918Z,11000
2017-05-20T17:20:02.512Z,10000
2017-05-20T17:25:02.616Z,10000
2017-05-20T17:30:02.526Z,9000
2017-05-20T17:35:03.339Z,9000
2017-05-20T17:40:03.403Z,8000
2017-05-20T17:45:02.833Z,8000
2017-05-20T17:50:02.804Z,7000
2017-05-20T17:55:03.007Z,7000
2017-05-20T18:00:03.179Z,6000
2017-05-20T18:05:02.913Z,6000
2017-05-20T18:10:02.875Z,5000
2017-05-20T18:15:02.890Z,5000
2017-05-20T18:20:02.648Z,4000
2017-05-20T18:25:03.150Z,4000
2017-05-20T18:30:03.459Z,3000
2017-05-20T18:35:03.374Z,3000
2017-05-20T18:40:03.152Z,2000
2017-05-20T18:45:03.240Z,1000
2017-05-20T18:50:03.031Z,942
2017-05-20T18:55:02.666Z,801
2017-05-20T19:00:03.253Z,699
2017-05-20T19:05:03.057Z,630
2017-05-20T19:10:03.154Z,526
2017-05-20T19:15:02.698Z,423
2017-05-20T19:20:02.696Z,330
2017-05-20T19:25:02.829Z,255
2017-05-20T19:30:02.866Z,126
2017-05-20T19:35:03.071Z,68
2017-05-20T19:40:02.926Z,52
2017-05-20T19:45:03.343Z,41
2017-05-20T19:50:02.597Z,28
2017-05-20T19:55:03.159Z,16
2017-05-20T20:00:02.806Z,8
2017-05-20T20:05:03.122Z,4
2017-05-20T20:10:03.394Z,2
2017-05-20T20:15:02.818Z,1
2017-05-20T20:20:02.789Z,0
2017-05-20T20:25:02.929Z,0
2017-05-20T20:30:02.825Z,0
2017-05-20T20:35:03.332Z,0
2017-05-20T20:40:02.465Z,0
2017-05-20T20:45:03.407Z,0
2017-05-20T20:50:02.807Z,0
2017-05-20T20:55:02.840Z,0
2017-05-20T21:00:03.396Z,0
2017-05-20T21:05:03.155Z,0
2017-05-20T21:10:03.429Z,0
2017-05-20T21:15:03.418Z,0
2017-05-20T21:20:03.233Z,0
2017-05-20T21:25:03.091Z,0
2017-05-20T21:30:02.906Z,0
2017-05-20T21:35:02.594Z,0
2017-05-20T21:40:03.408Z,0
2017-05-20T21:45:03.164Z,0
2017-05-20T21:50:02.820Z,0
2017-05-20T21:55:02.598Z,0
2017-05-20T22:00:03.376Z,0
2017-05-20T22:05:03.247Z,0
2017-05-20T22:10:02.891Z,0
2017-05-20T22:15:02.487Z,0
2017-05-20T22:20:03.070Z,0
2017-05-20T22:25:02.711Z,0
2017-05-20T22:30:03.455Z,0
2017-05-20T22:35:02.992Z,0
2017-05-20T22:40:02.789Z,0
2017-05-20T22:45:03.447Z,0
2017-05-20T22:50:03.240Z,0
2017-05-20T22:55:02.990Z,0
2017-05-20T23:00:02.572Z,0
2017-05-20T23:05:02.670Z,0
2017-05-20T23:10:02.488Z,0
2017-05-20T23:15:03.223Z,0
2017-05-20T23:20:02.859Z,0
2017-05-20T23:25:02.522Z,0
2017-05-20T23:30:03.067Z,0
2017-05-20T23:35:02.777Z,0
2017-05-20T23:40:02.588Z,0
2017-05-20T23:45:03.269Z,0
2017-05-20T23:50:02.848Z,0
2017-05-20T23:55:02.555Z,0
